createdAt,value
2023-02-02T00:01:17.248Z,2.61
2023-02-02T00:16:18.665Z,2.53
2023-02-02T00:31:20.059Z,2.64
2023-02-02T00:46:21.449Z,2.72
2023-02-02T01:01:22.924Z,2.75
2023-02-02T01:16:24.848Z,2.79
2023-02-02T01:31:26.335Z,2.87
2023-02-02T01:46:27.892Z,2.84
2023-02-02T02:01:29.319Z,2.87
2023-02-02T02:16:30.838Z,2.89
2023-02-02T02:31:32.450Z,2.95
2023-02-02T02:46:35.965Z,2.98
2023-02-02T03:01:40.221Z,2.98
2023-02-02T03:16:41.631Z,2.97
2023-02-02T03:31:42.990Z,3.04
2023-02-02T03:46:44.482Z,2.99
2023-02-02T04:01:45.884Z,3.05
2023-02-02T04:16:47.261Z,3.06
2023-02-02T04:31:49.750Z,3.16
2023-02-02T04:46:51.183Z,3.16
2023-02-02T05:01:52.606Z,3.19
2023-02-02T05:16:54.444Z,3.23
2023-02-02T05:31:55.882Z,3.24
2023-02-02T05:46:57.302Z,3.22
2023-02-02T06:01:58.665Z,3.22
2023-02-02T06:17:00.100Z,3.24
2023-02-02T06:32:01.510Z,3.22
2023-02-02T06:47:02.873Z,3.21
2023-02-02T07:02:04.223Z,3.23
2023-02-02T07:17:05.576Z,3.25
2023-02-02T07:32:06.987Z,3.27
2023-02-02T07:47:08.383Z,3.31
2023-02-02T08:02:09.783Z,3.36
2023-02-02T08:17:11.161Z,3.37
2023-02-02T08:32:12.515Z,3.36
2023-02-02T08:47:13.905Z,3.41
2023-02-02T09:02:16.792Z,3.44
2023-02-02T09:17:18.219Z,3.48
2023-02-02T09:32:19.566Z,3.45
2023-02-02T09:47:20.961Z,3.53
2023-02-02T10:02:22.317Z,3.56
2023-02-02T10:17:23.660Z,3.63
2023-02-02T10:32:25.049Z,3.78
2023-02-02T10:47:26.675Z,3.81
2023-02-02T11:02:28.168Z,3.78
2023-02-02T11:17:29.899Z,3.81
2023-02-02T11:32:32.441Z,3.78
2023-02-02T11:47:33.889Z,3.71
2023-02-02T12:02:35.268Z,3.76
2023-02-02T12:17:38.922Z,3.69
2023-02-02T12:32:41.661Z,3.66
2023-02-02T12:47:43.010Z,3.58
2023-02-02T13:02:44.609Z,3.55
2023-02-02T13:17:45.985Z,3.55
2023-02-02T13:32:47.343Z,3.53
2023-02-02T13:47:48.725Z,3.55
2023-02-02T14:02:50.197Z,3.70
2023-02-02T14:17:51.549Z,3.80
2023-02-02T14:32:52.958Z,3.78
2023-02-02T14:47:54.295Z,3.77
2023-02-02T15:02:55.710Z,3.78
2023-02-02T15:17:58.850Z,3.76
2023-02-02T15:33:02.067Z,3.71
2023-02-02T15:48:04.304Z,3.69
2023-02-02T16:03:05.718Z,3.69
2023-02-02T16:18:10.640Z,3.70
2023-02-02T16:33:12.036Z,3.67
2023-02-02T16:48:13.495Z,3.61
2023-02-02T17:03:14.852Z,3.59
2023-02-02T17:18:16.219Z,3.61
2023-02-02T17:33:17.680Z,3.67
2023-02-02T17:48:19.018Z,3.70
2023-02-02T18:03:20.456Z,3.63
2023-02-02T18:18:21.916Z,3.61
2023-02-02T18:33:23.839Z,3.53
2023-02-02T18:48:25.206Z,3.55
2023-02-02T19:03:26.557Z,3.49
2023-02-02T19:18:28.032Z,3.47
2023-02-02T19:33:29.364Z,3.43
2023-02-02T19:48:30.703Z,3.37
2023-02-02T20:03:32.083Z,3.35
2023-02-02T20:18:33.451Z,3.38
2023-02-02T20:33:34.845Z,3.32
2023-02-02T20:48:36.200Z,3.40
2023-02-02T21:03:37.680Z,3.32
2023-02-02T21:18:39.197Z,3.36
2023-02-02T21:33:40.572Z,3.41
2023-02-02T21:48:42.033Z,3.43
2023-02-02T22:03:49.541Z,3.39
2023-02-02T22:18:50.909Z,3.42
2023-02-02T22:33:52.262Z,3.32
2023-02-02T22:48:53.637Z,3.25
2023-02-02T23:03:55.094Z,3.15
2023-02-02T23:18:56.467Z,3.11
2023-02-02T23:33:58.049Z,3.12
2023-02-02T23:49:00.534Z,3.21
